createdAt,value
2023-02-19T00:01:35.644Z,102783.25
2023-02-19T00:04:10.192Z,102785.81
2023-02-19T00:06:37.169Z,102781.56
2023-02-19T00:09:04.775Z,102784.69
2023-02-19T00:11:34.006Z,102774.84
2023-02-19T00:14:02.437Z,102770.28
2023-02-19T00:16:32.292Z,102762.97
2023-02-19T00:19:00.525Z,102769.34
2023-02-19T00:21:28.063Z,102763.63
2023-02-19T00:23:57.950Z,102756.56
2023-02-19T00:26:25.263Z,102753.94
2023-02-19T00:28:53.720Z,102752.25
2023-02-19T00:31:27.645Z,102751.59
2023-02-19T00:33:57.654Z,102751.53
2023-02-19T00:36:26.095Z,102754.00
2023-02-19T00:38:52.879Z,102749.47
2023-02-19T00:41:21.603Z,102743.19
2023-02-19T00:43:49.568Z,102747.25
2023-02-19T00:46:22.436Z,102749.91
2023-02-19T00:48:49.289Z,102747.16
2023-02-19T00:51:16.169Z,102741.09
2023-02-19T00:53:43.551Z,102738.28
2023-02-19T00:56:10.965Z,102738.75
2023-02-19T00:58:38.405Z,102735.53
2023-02-19T01:01:06.665Z,102730.09
2023-02-19T01:03:34.934Z,102727.88
2023-02-19T01:06:02.251Z,102730.69
2023-02-19T01:08:31.179Z,102729.34
2023-02-19T01:11:00.941Z,102723.53
2023-02-19T01:13:28.519Z,102716.06
2023-02-19T01:16:17.387Z,102711.94
2023-02-19T01:18:45.129Z,102712.09
2023-02-19T01:21:17.795Z,102714.22
2023-02-19T01:23:46.666Z,102698.88
2023-02-19T01:26:16.949Z,102702.56
2023-02-19T01:28:44.948Z,102698.50
2023-02-19T01:31:17.745Z,102694.50
2023-02-19T01:33:49.340Z,102681.88
2023-02-19T01:36:16.946Z,102686.19
2023-02-19T01:38:44.522Z,102691.47
2023-02-19T01:41:17.310Z,102687.22
2023-02-19T01:44:09.125Z,102680.44
2023-02-19T01:46:44.360Z,102672.75
2023-02-19T01:49:18.749Z,102674.56
2023-02-19T01:51:49.508Z,102672.81
2023-02-19T01:54:22.722Z,102666.88
2023-02-19T01:56:50.409Z,102678.97
2023-02-19T01:59:18.920Z,102670.50
2023-02-19T02:01:46.090Z,102659.69
2023-02-19T02:04:14.875Z,102668.09
2023-02-19T02:06:57.376Z,102654.56
2023-02-19T02:09:47.287Z,102653.81
2023-02-19T02:12:14.470Z,102650.66
2023-02-19T02:14:45.457Z,102644.97
2023-02-19T02:17:12.643Z,102651.03
2023-02-19T02:20:01.160Z,102642.47
2023-02-19T02:22:43.381Z,102639.94
2023-02-19T02:25:52.759Z,102629.53
2023-02-19T02:28:37.221Z,102623.28
2023-02-19T02:31:14.167Z,102620.00
2023-02-19T02:34:04.870Z,102611.69
2023-02-19T02:36:43.607Z,102609.19
2023-02-19T02:39:17.549Z,102610.97
2023-02-19T02:42:09.630Z,102606.09
2023-02-19T02:44:38.227Z,102607.66
2023-02-19T02:47:07.316Z,102595.03
2023-02-19T02:49:55.446Z,102597.59
2023-02-19T02:52:41.379Z,102602.72
2023-02-19T02:55:11.089Z,102600.41
2023-02-19T02:57:38.812Z,102601.84
2023-02-19T03:00:06.499Z,102600.25
2023-02-19T03:02:33.825Z,102592.41
2023-02-19T03:05:24.363Z,102591.59
2023-02-19T03:08:07.592Z,102590.81
2023-02-19T03:10:41.762Z,102591.59
2023-02-19T03:13:35.289Z,102588.56
2023-02-19T03:16:28.696Z,102592.41
2023-02-19T03:19:32.134Z,102588.09
2023-02-19T03:22:22.800Z,102583.06
2023-02-19T03:25:18.193Z,102590.09
2023-02-19T03:27:48.405Z,102576.25
2023-02-19T03:30:20.816Z,102569.50
2023-02-19T03:33:03.088Z,102572.72
2023-02-19T03:35:34.164Z,102573.75
2023-02-19T03:38:04.929Z,102566.19
2023-02-19T03:40:44.058Z,102568.88
2023-02-19T03:43:23.625Z,102562.16
2023-02-19T03:46:23.355Z,102568.16
2023-02-19T03:49:06.608Z,102564.66
2023-02-19T03:51:43.305Z,102569.66
2023-02-19T03:54:16.221Z,102564.72
2023-02-19T03:56:58.686Z,102568.00
2023-02-19T03:59:37.555Z,102568.78
2023-02-19T04:02:13.623Z,102566.22
2023-02-19T04:04:56.403Z,102572.31
2023-02-19T04:07:25.642Z,102574.47
2023-02-19T04:09:53.507Z,102564.22
2023-02-19T04:12:23.263Z,102564.22
2023-02-19T04:15:07.151Z,102562.47
2023-02-19T04:17:42.499Z,102564.34
2023-02-19T04:20:11.876Z,102567.75
2023-02-19T04:22:40.106Z,102565.03
2023-02-19T04:25:08.184Z,102563.19
2023-02-19T04:27:44.455Z,102563.19
2023-02-19T04:30:13.701Z,102567.69
2023-02-19T04:32:40.415Z,102569.44
2023-02-19T04:35:07.253Z,102564.00
2023-02-19T04:37:33.985Z,102565.75
2023-02-19T04:40:00.842Z,102568.41
2023-02-19T04:42:27.642Z,102570.09
2023-02-19T04:44:54.350Z,102567.59
2023-02-19T04:47:21.062Z,102570.97
2023-02-19T04:49:47.947Z,102572.66
2023-02-19T04:52:14.979Z,102567.69
2023-02-19T04:54:41.731Z,102565.03
2023-02-19T04:57:08.594Z,102563.13
2023-02-19T04:59:35.457Z,102563.91
2023-02-19T05:02:02.166Z,102567.44
2023-02-19T05:04:28.976Z,102564.06
2023-02-19T05:06:55.856Z,102559.88
2023-02-19T05:09:22.636Z,102562.97
2023-02-19T05:11:49.448Z,102569.38
2023-02-19T05:14:17.218Z,102559.03
2023-02-19T05:16:43.991Z,102564.25
2023-02-19T05:19:13.842Z,102559.38
2023-02-19T05:21:41.043Z,102562.88
2023-02-19T05:24:08.340Z,102567.22
2023-02-19T05:26:35.576Z,102566.97
2023-02-19T05:29:02.774Z,102552.44
2023-02-19T05:31:30.020Z,102555.91
2023-02-19T05:33:57.002Z,102554.88
2023-02-19T05:36:24.340Z,102550.16
2023-02-19T05:38:55.212Z,102548.13
2023-02-19T05:41:24.820Z,102536.53
2023-02-19T05:43:51.910Z,102541.81
2023-02-19T05:46:21.682Z,102538.75
2023-02-19T05:48:49.316Z,102548.53
2023-02-19T05:51:18.433Z,102547.13
2023-02-19T05:53:46.211Z,102536.19
2023-02-19T05:56:31.271Z,102533.06
2023-02-19T05:58:58.416Z,102526.34
2023-02-19T06:01:28.443Z,102527.38
2023-02-19T06:03:57.483Z,102532.31
2023-02-19T06:06:26.221Z,102544.25
2023-02-19T06:08:53.428Z,102548.09
2023-02-19T06:11:20.641Z,102549.53
2023-02-19T06:13:49.427Z,102543.34
2023-02-19T06:16:17.831Z,102541.78
2023-02-19T06:18:45.237Z,102550.09
2023-02-19T06:21:12.603Z,102555.13
2023-02-19T06:23:39.897Z,102554.25
2023-02-19T06:26:06.681Z,102555.13
2023-02-19T06:28:33.614Z,102557.69
2023-02-19T06:31:00.657Z,102555.13
2023-02-19T06:33:28.442Z,102553.53
2023-02-19T06:35:58.753Z,102554.41
2023-02-19T06:38:25.651Z,102559.13
2023-02-19T06:40:52.527Z,102564.16
2023-02-19T06:43:19.523Z,102561.03
2023-02-19T06:45:46.899Z,102555.78
2023-02-19T06:48:13.754Z,102555.47
2023-02-19T06:50:40.421Z,102554.91
2023-02-19T06:53:09.031Z,102556.38
2023-02-19T06:55:35.996Z,102561.59
2023-02-19T06:58:02.757Z,102564.63
2023-02-19T07:00:29.840Z,102566.97
2023-02-19T07:02:56.806Z,102560.53
2023-02-19T07:05:23.707Z,102556.94
2023-02-19T07:07:50.625Z,102556.03
2023-02-19T07:10:18.013Z,102564.34
2023-02-19T07:12:44.831Z,102559.56
2023-02-19T07:15:11.556Z,102556.47
2023-02-19T07:17:38.307Z,102556.75
2023-02-19T07:20:05.246Z,102563.66
2023-02-19T07:22:32.016Z,102557.94
2023-02-19T07:24:58.804Z,102564.16
2023-02-19T07:27:25.539Z,102562.72
2023-02-19T07:29:52.414Z,102556.88
2023-02-19T07:32:19.313Z,102555.38
2023-02-19T07:34:45.966Z,102558.97
2023-02-19T07:37:12.821Z,102555.69
2023-02-19T07:39:39.664Z,102566.06
2023-02-19T07:42:06.632Z,102568.72
2023-02-19T07:44:33.622Z,102568.78
2023-02-19T07:47:00.388Z,102570.63
2023-02-19T07:49:27.162Z,102564.81
2023-02-19T07:51:53.960Z,102569.91
2023-02-19T07:54:20.717Z,102567.53
2023-02-19T07:56:47.524Z,102567.53
2023-02-19T07:59:15.898Z,102569.25
2023-02-19T08:02:01.279Z,102567.78
2023-02-19T08:04:28.095Z,102574.63
2023-02-19T08:06:54.833Z,102569.22
2023-02-19T08:09:21.638Z,102580.16
2023-02-19T08:12:07.071Z,102576.72
2023-02-19T08:14:34.059Z,102577.34
2023-02-19T08:17:01.078Z,102581.03
2023-02-19T08:19:28.067Z,102577.66
2023-02-19T08:21:54.904Z,102575.09
2023-02-19T08:24:21.797Z,102579.72
2023-02-19T08:26:48.661Z,102578.13
2023-02-19T08:29:15.455Z,102571.72
2023-02-19T08:31:42.334Z,102581.81
2023-02-19T08:34:09.219Z,102568.09
2023-02-19T08:36:35.957Z,102568.09
2023-02-19T08:39:02.941Z,102568.13
2023-02-19T08:41:29.744Z,102572.69
2023-02-19T08:43:56.719Z,102570.28
2023-02-19T08:46:23.685Z,102571.88
2023-02-19T08:48:50.635Z,102581.41
2023-02-19T08:51:18.990Z,102583.16
2023-02-19T08:53:46.198Z,102581.34
2023-02-19T08:56:18.630Z,102578.13
2023-02-19T08:58:45.844Z,102578.22
2023-02-19T09:01:15.558Z,102579.00
2023-02-19T09:03:42.688Z,102585.81
2023-02-19T09:06:17.929Z,102580.84
2023-02-19T09:08:45.111Z,102587.88
2023-02-19T09:11:12.684Z,102583.72
2023-02-19T09:13:39.755Z,102585.47
2023-02-19T09:16:06.936Z,102587.25
2023-02-19T09:18:33.898Z,102585.00
2023-02-19T09:21:02.043Z,102585.19
2023-02-19T09:23:29.163Z,102587.75
2023-02-19T09:26:00.288Z,102585.34
2023-02-19T09:28:28.265Z,102580.00
2023-02-19T09:30:55.428Z,102580.75
2023-02-19T09:33:22.345Z,102584.19
2023-02-19T09:35:49.153Z,102585.91
2023-02-19T09:38:16.095Z,102581.91
2023-02-19T09:40:42.959Z,102578.38
2023-02-19T09:43:16.814Z,102578.88
2023-02-19T09:45:43.863Z,102575.56
2023-02-19T09:48:12.587Z,102579.75
2023-02-19T09:50:45.888Z,102576.47
2023-02-19T09:53:29.808Z,102573.94
2023-02-19T09:55:56.935Z,102585.81
2023-02-19T09:58:30.106Z,102581.28
2023-02-19T10:01:00.922Z,102579.97
2023-02-19T10:03:33.713Z,102586.66
2023-02-19T10:06:14.421Z,102571.41
2023-02-19T10:08:41.740Z,102583.41
2023-02-19T10:11:12.213Z,102587.97
2023-02-19T10:13:47.497Z,102585.34
2023-02-19T10:16:19.454Z,102586.13
2023-02-19T10:18:49.739Z,102587.66
2023-02-19T10:21:24.633Z,102596.47
2023-02-19T10:23:57.553Z,102597.63
2023-02-19T10:26:25.177Z,102592.63
2023-02-19T10:28:55.585Z,102589.06
2023-02-19T10:31:24.991Z,102590.75
2023-02-19T10:33:56.993Z,102593.22
2023-02-19T10:36:39.196Z,102587.16
2023-02-19T10:39:33.464Z,102589.66
2023-02-19T10:42:00.574Z,102594.69
2023-02-19T10:44:42.894Z,102585.47
2023-02-19T10:47:18.095Z,102586.69
2023-02-19T10:49:48.892Z,102593.69
2023-02-19T10:52:27.150Z,102599.06
2023-02-19T10:55:13.253Z,102596.63
2023-02-19T10:57:40.624Z,102593.97
2023-02-19T11:00:16.405Z,102588.94
2023-02-19T11:02:44.414Z,102580.56
2023-02-19T11:05:17.147Z,102575.94
2023-02-19T11:07:57.997Z,102569.44
2023-02-19T11:10:49.530Z,102565.03
2023-02-19T11:13:31.251Z,102559.47
2023-02-19T11:15:59.131Z,102549.53
2023-02-19T11:18:29.299Z,102550.44
2023-02-19T11:20:59.236Z,102546.84
2023-02-19T11:23:45.797Z,102546.03
2023-02-19T11:26:28.051Z,102548.31
2023-02-19T11:29:02.825Z,102541.97
2023-02-19T11:31:35.510Z,102535.59
2023-02-19T11:34:14.574Z,102537.84
2023-02-19T11:36:42.919Z,102521.72
2023-02-19T11:39:15.812Z,102522.13
2023-02-19T11:42:10.680Z,102528.16
2023-02-19T11:45:05.921Z,102517.66
2023-02-19T11:47:51.268Z,102515.31
2023-02-19T11:50:31.157Z,102522.63
2023-02-19T11:53:30.611Z,102512.69
2023-02-19T11:56:03.582Z,102504.16
2023-02-19T11:58:39.058Z,102507.03
2023-02-19T12:01:17.366Z,102499.50
2023-02-19T12:04:03.255Z,102493.97
2023-02-19T12:07:11.272Z,102494.22
2023-02-19T12:10:09.196Z,102481.38
2023-02-19T12:13:10.045Z,102483.63
2023-02-19T12:15:45.646Z,102479.31
2023-02-19T12:18:41.234Z,102471.75
2023-02-19T12:21:26.399Z,102468.13
2023-02-19T12:24:23.522Z,102465.22
2023-02-19T12:27:11.379Z,102462.06
2023-02-19T12:29:51.074Z,102450.34
2023-02-19T12:32:41.252Z,102452.03
2023-02-19T12:35:35.716Z,102446.75
2023-02-19T12:38:35.909Z,102442.06
2023-02-19T12:41:06.191Z,102441.25
2023-02-19T12:43:34.838Z,102445.91
2023-02-19T12:46:28.180Z,102442.59
2023-02-19T12:49:00.562Z,102432.28
2023-02-19T12:51:36.647Z,102433.91
2023-02-19T12:54:21.052Z,102426.59
2023-02-19T12:56:55.465Z,102424.03
2023-02-19T12:59:28.816Z,102427.44
2023-02-19T13:02:33.229Z,102417.28
2023-02-19T13:05:14.411Z,102413.22
2023-02-19T13:08:07.977Z,102411.88
2023-02-19T13:11:07.170Z,102412.63
2023-02-19T13:13:51.654Z,102407.03
2023-02-19T13:16:21.128Z,102406.31
2023-02-19T13:18:54.886Z,102408.78
2023-02-19T13:21:43.007Z,102406.44
2023-02-19T13:24:16.881Z,102401.16
2023-02-19T13:27:14.033Z,102396.41
2023-02-19T13:29:51.409Z,102399.13
2023-02-19T13:32:38.732Z,102398.91
2023-02-19T13:35:32.957Z,102390.28
2023-02-19T13:38:04.331Z,102390.84
2023-02-19T13:40:33.323Z,102389.88
2023-02-19T13:43:03.633Z,102386.84
2023-02-19T13:45:43.950Z,102375.94
2023-02-19T13:48:14.022Z,102378.25
2023-02-19T13:50:41.720Z,102376.28
2023-02-19T13:53:45.284Z,102372.81
2023-02-19T13:56:30.301Z,102368.50
2023-02-19T13:58:58.464Z,102371.03
2023-02-19T14:01:50.390Z,102375.72
2023-02-19T14:04:40.283Z,102371.38
2023-02-19T14:07:07.011Z,102369.66
2023-02-19T14:09:40.057Z,102364.31
2023-02-19T14:12:10.417Z,102363.66
2023-02-19T14:14:39.352Z,102363.38
2023-02-19T14:17:08.861Z,102362.91
2023-02-19T14:19:41.731Z,102353.81
2023-02-19T14:22:52.038Z,102348.34
2023-02-19T14:25:30.822Z,102355.38
2023-02-19T14:28:22.162Z,102361.50
2023-02-19T14:30:48.959Z,102357.00
2023-02-19T14:33:23.080Z,102353.38
2023-02-19T14:35:55.495Z,102362.66
2023-02-19T14:38:29.828Z,102361.81
2023-02-19T14:40:57.724Z,102357.22
2023-02-19T14:43:26.375Z,102361.56
2023-02-19T14:46:01.338Z,102355.50
2023-02-19T14:48:35.208Z,102359.13
2023-02-19T14:51:13.264Z,102355.59
2023-02-19T14:53:45.011Z,102355.16
2023-02-19T14:56:23.579Z,102354.97
2023-02-19T14:59:12.367Z,102355.06
2023-02-19T15:01:40.239Z,102357.59
2023-02-19T15:04:21.201Z,102354.78
2023-02-19T15:06:48.310Z,102354.66
2023-02-19T15:09:16.791Z,102342.44
2023-02-19T15:11:44.118Z,102353.03
2023-02-19T15:14:21.465Z,102351.28
2023-02-19T15:16:48.906Z,102347.69
2023-02-19T15:19:17.153Z,102341.50
2023-02-19T15:21:47.947Z,102346.56
2023-02-19T15:24:15.592Z,102352.53
2023-02-19T15:26:47.342Z,102347.13
2023-02-19T15:29:16.829Z,102349.75
2023-02-19T15:31:53.012Z,102346.56
2023-02-19T15:34:30.796Z,102354.00
2023-02-19T15:37:05.661Z,102349.75
2023-02-19T15:39:53.497Z,102344.78
2023-02-19T15:42:30.508Z,102343.72
2023-02-19T15:45:01.595Z,102346.91
2023-02-19T15:47:42.049Z,102356.97
2023-02-19T15:50:30.390Z,102344.34
2023-02-19T15:53:18.709Z,102338.28
2023-02-19T15:55:51.424Z,102347.41
2023-02-19T15:58:33.297Z,102349.75
2023-02-19T16:01:06.102Z,102343.53
2023-02-19T16:03:33.145Z,102335.56
2023-02-19T16:06:11.514Z,102335.47
2023-02-19T16:08:40.903Z,102338.13
2023-02-19T16:11:28.057Z,102339.94
2023-02-19T16:14:33.453Z,102332.34
2023-02-19T16:17:07.470Z,102332.16
2023-02-19T16:19:42.829Z,102339.59
2023-02-19T16:22:12.241Z,102335.09
2023-02-19T16:24:51.325Z,102342.31
2023-02-19T16:27:34.836Z,102344.84
2023-02-19T16:30:26.802Z,102345.75
2023-02-19T16:33:36.958Z,102345.38
2023-02-19T16:36:21.884Z,102338.53
2023-02-19T16:39:09.337Z,102336.84
2023-02-19T16:41:48.131Z,102330.22
2023-02-19T16:44:21.085Z,102321.44
2023-02-19T16:46:49.864Z,102328.69
2023-02-19T16:49:16.916Z,102328.69
2023-02-19T16:51:45.092Z,102326.19
2023-02-19T16:54:12.732Z,102328.91
2023-02-19T16:56:39.781Z,102337.81
2023-02-19T16:59:09.599Z,102336.19
2023-02-19T17:01:40.984Z,102339.34
2023-02-19T17:04:11.721Z,102334.75
2023-02-19T17:06:39.524Z,102336.22
2023-02-19T17:09:08.595Z,102338.59
2023-02-19T17:11:36.436Z,102328.19
2023-02-19T17:14:03.779Z,102332.34
2023-02-19T17:16:40.575Z,102338.09
2023-02-19T17:19:17.389Z,102338.34
2023-02-19T17:21:45.492Z,102344.31
2023-02-19T17:24:19.450Z,102347.63
2023-02-19T17:26:46.527Z,102349.53
2023-02-19T17:29:15.296Z,102347.00
2023-02-19T17:31:42.285Z,102352.03
2023-02-19T17:34:09.347Z,102342.50
2023-02-19T17:36:38.101Z,102351.03
2023-02-19T17:39:12.141Z,102353.50
2023-02-19T17:41:39.225Z,102370.75
2023-02-19T17:44:06.133Z,102376.06
2023-02-19T17:46:34.128Z,102369.16
2023-02-19T17:49:01.082Z,102375.00
2023-02-19T17:51:28.218Z,102379.19
2023-02-19T17:53:55.285Z,102383.53
2023-02-19T17:56:28.348Z,102381.72
2023-02-19T17:58:56.905Z,102386.84
2023-02-19T18:01:24.626Z,102384.19
2023-02-19T18:03:52.153Z,102381.88
2023-02-19T18:06:19.296Z,102389.41
2023-02-19T18:08:48.377Z,102400.53
2023-02-19T18:11:15.508Z,102411.88
2023-02-19T18:13:42.712Z,102413.88
2023-02-19T18:16:10.083Z,102415.38
2023-02-19T18:18:37.308Z,102411.69
2023-02-19T18:21:07.859Z,102410.59
2023-02-19T18:23:35.001Z,102399.44
2023-02-19T18:26:02.244Z,102406.41
2023-02-19T18:28:29.741Z,102407.38
2023-02-19T18:30:56.766Z,102408.38
2023-02-19T18:33:23.832Z,102411.94
2023-02-19T18:35:50.977Z,102417.34
2023-02-19T18:38:18.510Z,102420.91
2023-02-19T18:40:46.578Z,102419.78
2023-02-19T18:43:13.445Z,102421.22
2023-02-19T18:45:40.330Z,102406.06
2023-02-19T18:48:07.334Z,102425.63
2023-02-19T18:50:35.147Z,102419.50
2023-02-19T18:53:02.450Z,102411.81
2023-02-19T18:55:29.575Z,102414.31
2023-02-19T18:57:57.003Z,102423.72
2023-02-19T19:00:26.739Z,102422.03
2023-02-19T19:02:58.335Z,102420.94
2023-02-19T19:05:26.406Z,102418.03
2023-02-19T19:07:59.516Z,102413.47
2023-02-19T19:10:27.158Z,102430.72
2023-02-19T19:12:54.542Z,102421.56
2023-02-19T19:15:22.452Z,102437.09
2023-02-19T19:17:49.878Z,102425.72
2023-02-19T19:20:19.179Z,102422.28
2023-02-19T19:22:46.399Z,102409.59
2023-02-19T19:25:13.256Z,102420.72
2023-02-19T19:27:40.152Z,102420.59
2023-02-19T19:30:08.262Z,102422.38
2023-02-19T19:32:35.322Z,102421.50
2023-02-19T19:35:02.195Z,102418.97
2023-02-19T19:37:29.398Z,102423.28
2023-02-19T19:39:58.102Z,102433.56
2023-02-19T19:42:25.172Z,102431.63
2023-02-19T19:44:52.214Z,102432.44
2023-02-19T19:47:19.206Z,102439.34
2023-02-19T19:49:47.301Z,102444.38
2023-02-19T19:52:16.944Z,102440.00
2023-02-19T19:54:43.912Z,102445.94
2023-02-19T19:57:11.421Z,102439.81
2023-02-19T19:59:39.658Z,102446.69
2023-02-19T20:02:07.934Z,102445.88
2023-02-19T20:04:34.908Z,102444.25
2023-02-19T20:07:02.432Z,102446.94
2023-02-19T20:09:29.520Z,102456.53
2023-02-19T20:11:56.809Z,102457.31
2023-02-19T20:14:24.996Z,102462.44
2023-02-19T20:16:52.632Z,102464.03
2023-02-19T20:19:20.801Z,102461.38
2023-02-19T20:21:52.956Z,102462.16
2023-02-19T20:24:26.123Z,102470.03
2023-02-19T20:27:02.192Z,102471.94
2023-02-19T20:29:31.678Z,102470.00
2023-02-19T20:32:00.196Z,102468.16
2023-02-19T20:34:27.282Z,102465.53
2023-02-19T20:36:54.597Z,102476.59
2023-02-19T20:39:22.819Z,102475.72
2023-02-19T20:41:51.924Z,102470.47
2023-02-19T20:44:19.851Z,102478.28
2023-02-19T20:46:49.667Z,102483.47
2023-02-19T20:49:19.105Z,102465.34
2023-02-19T20:51:52.143Z,102477.28
2023-02-19T20:54:22.423Z,102488.34
2023-02-19T20:56:53.273Z,102480.63
2023-02-19T20:59:21.785Z,102490.16
2023-02-19T21:01:49.844Z,102489.91
2023-02-19T21:04:18.497Z,102488.53
2023-02-19T21:06:46.269Z,102481.34
2023-02-19T21:09:13.210Z,102479.75
2023-02-19T21:11:40.465Z,102484.22
2023-02-19T21:14:07.614Z,102493.94
2023-02-19T21:16:35.016Z,102489.75
2023-02-19T21:19:02.547Z,102500.75
2023-02-19T21:21:31.591Z,102500.88
2023-02-19T21:24:00.155Z,102495.91
2023-02-19T21:26:37.440Z,102499.44
2023-02-19T21:29:08.003Z,102503.13
2023-02-19T21:31:43.484Z,102500.03
2023-02-19T21:34:14.329Z,102495.03
2023-02-19T21:36:41.561Z,102505.97
2023-02-19T21:39:12.166Z,102503.13
2023-02-19T21:41:39.484Z,102504.69
2023-02-19T21:44:06.831Z,102515.91
2023-02-19T21:46:34.707Z,102519.28
2023-02-19T21:49:02.354Z,102514.88
2023-02-19T21:51:38.064Z,102519.94
2023-02-19T21:54:07.041Z,102519.81
2023-02-19T21:56:36.550Z,102523.97
2023-02-19T21:59:04.034Z,102520.47
2023-02-19T22:01:33.621Z,102522.25
2023-02-19T22:04:01.302Z,102520.53
2023-02-19T22:06:30.619Z,102515.41
2023-02-19T22:08:59.066Z,102516.22
2023-02-19T22:11:26.292Z,102520.53
2023-02-19T22:13:53.551Z,102520.59
2023-02-19T22:16:21.019Z,102518.72
2023-02-19T22:18:56.268Z,102525.53
2023-02-19T22:21:25.685Z,102517.75
2023-02-19T22:23:54.051Z,102521.88
2023-02-19T22:26:26.140Z,102527.59
2023-02-19T22:28:53.380Z,102531.06
2023-02-19T22:31:23.248Z,102530.16
2023-02-19T22:33:50.440Z,102524.13
2023-02-19T22:36:26.129Z,102526.81
2023-02-19T22:38:53.506Z,102532.63
2023-02-19T22:41:21.182Z,102527.88
2023-02-19T22:43:48.536Z,102529.81
2023-02-19T22:46:18.876Z,102526.13
2023-02-19T22:48:46.272Z,102533.81
2023-02-19T22:51:18.384Z,102533.31
2023-02-19T22:53:49.197Z,102534.19
2023-02-19T22:56:17.902Z,102535.75
2023-02-19T22:58:45.018Z,102526.94
2023-02-19T23:01:14.103Z,102528.78
2023-02-19T23:03:55.156Z,102523.13
2023-02-19T23:06:25.361Z,102517.31
2023-02-19T23:08:53.794Z,102512.34
2023-02-19T23:11:25.812Z,102505.75
2023-02-19T23:13:53.440Z,102504.78
2023-02-19T23:16:20.606Z,102506.94
2023-02-19T23:18:48.140Z,102513.53
2023-02-19T23:21:16.178Z,102530.00
2023-02-19T23:23:44.832Z,102523.41
2023-02-19T23:26:12.996Z,102522.31
2023-02-19T23:28:41.956Z,102534.50
2023-02-19T23:31:08.908Z,102527.00
2023-02-19T23:33:36.076Z,102532.94
2023-02-19T23:36:06.436Z,102532.84
2023-02-19T23:38:33.710Z,102526.13
2023-02-19T23:41:03.763Z,102526.25
2023-02-19T23:43:30.601Z,102520.41
2023-02-19T23:45:57.478Z,102514.44
2023-02-19T23:48:24.422Z,102522.25
2023-02-19T23:50:51.209Z,102529.94
2023-02-19T23:53:18.045Z,102515.88
2023-02-19T23:55:44.809Z,102521.81
2023-02-19T23:58:11.925Z,102512.16
